sensor_id;sensor_type;location;lat;lon;timestamp;P1;durP1;ratioP1;P2;durP2;ratioP2
49840;SDS011;35738;49.890;5.930;2023-07-20T00:00:30;5.80;;;2.95;;
49840;SDS011;35738;49.890;5.930;2023-07-20T00:03:14;4.97;;;2.80;;
49840;SDS011;35738;49.890;5.930;2023-07-20T00:05:45;6.05;;;3.20;;
49840;SDS011;35738;49.890;5.930;2023-07-20T00:08:12;7.97;;;2.75;;
49840;SDS011;35738;49.890;5.930;2023-07-20T00:10:40;5.88;;;2.70;;
49840;SDS011;35738;49.890;5.930;2023-07-20T00:13:08;3.05;;;2.63;;
49840;SDS011;35738;49.890;5.930;2023-07-20T00:15:35;6.38;;;3.00;;
49840;SDS011;35738;49.890;5.930;2023-07-20T00:18:02;3.72;;;2.92;;
49840;SDS011;35738;49.890;5.930;2023-07-20T00:20:29;5.53;;;3.00;;
49840;SDS011;35738;49.890;5.930;2023-07-20T00:22:56;4.90;;;2.85;;
49840;SDS011;35738;49.890;5.930;2023-07-20T00:25:25;5.30;;;2.95;;
49840;SDS011;35738;49.890;5.930;2023-07-20T00:27:52;4.20;;;2.58;;
49840;SDS011;35738;49.890;5.930;2023-07-20T00:30:19;5.95;;;3.30;;
49840;SDS011;35738;49.890;5.930;2023-07-20T00:32:46;4.55;;;2.90;;
49840;SDS011;35738;49.890;5.930;2023-07-20T00:35:12;5.15;;;3.17;;
49840;SDS011;35738;49.890;5.930;2023-07-20T00:37:40;5.07;;;3.10;;
49840;SDS011;35738;49.890;5.930;2023-07-20T00:40:06;5.53;;;3.13;;
49840;SDS011;35738;49.890;5.930;2023-07-20T00:42:35;4.97;;;3.15;;
49840;SDS011;35738;49.890;5.930;2023-07-20T00:45:02;4.32;;;3.08;;
49840;SDS011;35738;49.890;5.930;2023-07-20T00:47:29;4.53;;;3.00;;
49840;SDS011;35738;49.890;5.930;2023-07-20T00:49:55;6.07;;;2.92;;
49840;SDS011;35738;49.890;5.930;2023-07-20T00:52:22;5.15;;;3.00;;
49840;SDS011;35738;49.890;5.930;2023-07-20T00:54:49;4.10;;;2.88;;
49840;SDS011;35738;49.890;5.930;2023-07-20T00:57:16;4.82;;;3.10;;
49840;SDS011;35738;49.890;5.930;2023-07-20T00:59:44;4.20;;;2.95;;
49840;SDS011;35738;49.890;5.930;2023-07-20T01:02:11;4.50;;;3.00;;
49840;SDS011;35738;49.890;5.930;2023-07-20T01:04:37;6.55;;;3.60;;
49840;SDS011;35738;49.890;5.930;2023-07-20T01:12:42;5.30;;;3.30;;
49840;SDS011;35738;49.890;5.930;2023-07-20T01:15:09;7.57;;;2.92;;
49840;SDS011;35738;49.890;5.930;2023-07-20T01:17:37;5.63;;;3.40;;
49840;SDS011;35738;49.890;5.930;2023-07-20T01:20:04;6.05;;;3.22;;
49840;SDS011;35738;49.890;5.930;2023-07-20T01:22:42;5.65;;;3.20;;
49840;SDS011;35738;49.890;5.930;2023-07-20T01:25:21;5.13;;;2.88;;
49840;SDS011;35738;49.890;5.930;2023-07-20T01:33:15;4.93;;;3.38;;
49840;SDS011;35738;49.890;5.930;2023-07-20T01:35:43;3.65;;;2.85;;
49840;SDS011;35738;49.890;5.930;2023-07-20T01:38:12;5.72;;;3.05;;
49840;SDS011;35738;49.890;5.930;2023-07-20T01:40:40;3.83;;;3.15;;
49840;SDS011;35738;49.890;5.930;2023-07-20T01:43:07;8.32;;;3.30;;
49840;SDS011;35738;49.890;5.930;2023-07-20T01:45:33;6.32;;;3.58;;
49840;SDS011;35738;49.890;5.930;2023-07-20T01:48:00;5.55;;;3.35;;
49840;SDS011;35738;49.890;5.930;2023-07-20T01:50:27;5.05;;;3.50;;
49840;SDS011;35738;49.890;5.930;2023-07-20T01:52:54;5.75;;;3.55;;
49840;SDS011;35738;49.890;5.930;2023-07-20T01:55:20;5.75;;;3.33;;
49840;SDS011;35738;49.890;5.930;2023-07-20T01:57:47;6.88;;;3.47;;
49840;SDS011;35738;49.890;5.930;2023-07-20T02:00:14;9.10;;;3.50;;
49840;SDS011;35738;49.890;5.930;2023-07-20T02:02:41;7.38;;;3.30;;
49840;SDS011;35738;49.890;5.930;2023-07-20T02:05:08;5.93;;;3.25;;
49840;SDS011;35738;49.890;5.930;2023-07-20T02:07:35;5.28;;;3.15;;
49840;SDS011;35738;49.890;5.930;2023-07-20T02:10:02;7.38;;;3.38;;
49840;SDS011;35738;49.890;5.930;2023-07-20T02:12:29;8.93;;;3.75;;
49840;SDS011;35738;49.890;5.930;2023-07-20T02:14:55;6.18;;;3.35;;
49840;SDS011;35738;49.890;5.930;2023-07-20T02:17:22;6.18;;;3.20;;
49840;SDS011;35738;49.890;5.930;2023-07-20T02:19:55;6.60;;;3.10;;
49840;SDS011;35738;49.890;5.930;2023-07-20T02:22:23;6.40;;;3.35;;
49840;SDS011;35738;49.890;5.930;2023-07-20T02:24:50;5.03;;;2.97;;
49840;SDS011;35738;49.890;5.930;2023-07-20T02:27:17;6.05;;;3.30;;
49840;SDS011;35738;49.890;5.930;2023-07-20T02:29:44;7.43;;;3.80;;
49840;SDS011;35738;49.890;5.930;2023-07-20T02:32:10;8.65;;;3.70;;
49840;SDS011;35738;49.890;5.930;2023-07-20T02:34:38;4.68;;;3.55;;
49840;SDS011;35738;49.890;5.930;2023-07-20T02:37:05;10.20;;;3.35;;
49840;SDS011;35738;49.890;5.930;2023-07-20T02:39:31;5.10;;;3.53;;
49840;SDS011;35738;49.890;5.930;2023-07-20T02:41:58;7.70;;;3.80;;
49840;SDS011;35738;49.890;5.930;2023-07-20T02:44:25;4.93;;;3.47;;
49840;SDS011;35738;49.890;5.930;2023-07-20T02:46:51;5.07;;;3.17;;
49840;SDS011;35738;49.890;5.930;2023-07-20T02:49:18;6.40;;;3.35;;
49840;SDS011;35738;49.890;5.930;2023-07-20T02:51:44;5.85;;;3.38;;
49840;SDS011;35738;49.890;5.930;2023-07-20T02:54:12;5.10;;;3.00;;
49840;SDS011;35738;49.890;5.930;2023-07-20T02:56:38;6.68;;;3.20;;
49840;SDS011;35738;49.890;5.930;2023-07-20T02:59:05;7.82;;;3.20;;
49840;SDS011;35738;49.890;5.930;2023-07-20T03:01:31;7.00;;;3.67;;
49840;SDS011;35738;49.890;5.930;2023-07-20T03:03:58;5.60;;;3.47;;
49840;SDS011;35738;49.890;5.930;2023-07-20T03:06:25;8.15;;;3.25;;
49840;SDS011;35738;49.890;5.930;2023-07-20T03:08:52;5.85;;;3.40;;
49840;SDS011;35738;49.890;5.930;2023-07-20T03:11:19;5.55;;;3.50;;
49840;SDS011;35738;49.890;5.930;2023-07-20T03:13:48;6.38;;;3.40;;
49840;SDS011;35738;49.890;5.930;2023-07-20T03:16:15;8.18;;;3.50;;
49840;SDS011;35738;49.890;5.930;2023-07-20T03:18:44;5.70;;;3.58;;
49840;SDS011;35738;49.890;5.930;2023-07-20T03:21:10;7.50;;;3.45;;
49840;SDS011;35738;49.890;5.930;2023-07-20T03:23:40;6.03;;;3.55;;
49840;SDS011;35738;49.890;5.930;2023-07-20T03:26:07;7.35;;;3.67;;
49840;SDS011;35738;49.890;5.930;2023-07-20T03:28:37;5.32;;;3.53;;
49840;SDS011;35738;49.890;5.930;2023-07-20T03:31:05;6.18;;;3.55;;
49840;SDS011;35738;49.890;5.930;2023-07-20T03:33:32;5.32;;;3.63;;
49840;SDS011;35738;49.890;5.930;2023-07-20T03:36:00;5.88;;;3.70;;
49840;SDS011;35738;49.890;5.930;2023-07-20T03:38:27;5.10;;;3.63;;
49840;SDS011;35738;49.890;5.930;2023-07-20T03:40:57;6.60;;;3.70;;
49840;SDS011;35738;49.890;5.930;2023-07-20T03:43:25;5.40;;;3.53;;
49840;SDS011;35738;49.890;5.930;2023-07-20T03:45:54;6.82;;;3.60;;
49840;SDS011;35738;49.890;5.930;2023-07-20T03:48:21;7.35;;;3.80;;
49840;SDS011;35738;49.890;5.930;2023-07-20T03:50:50;5.25;;;3.53;;
49840;SDS011;35738;49.890;5.930;2023-07-20T03:53:17;6.18;;;3.75;;
49840;SDS011;35738;49.890;5.930;2023-07-20T03:55:45;5.88;;;3.72;;
49840;SDS011;35738;49.890;5.930;2023-07-20T03:58:13;7.78;;;3.70;;
49840;SDS011;35738;49.890;5.930;2023-07-20T04:00:43;8.32;;;3.97;;
49840;SDS011;35738;49.890;5.930;2023-07-20T04:03:14;6.25;;;3.90;;
49840;SDS011;35738;49.890;5.930;2023-07-20T04:05:41;9.45;;;3.90;;
49840;SDS011;35738;49.890;5.930;2023-07-20T04:08:09;7.97;;;4.00;;
49840;SDS011;35738;49.890;5.930;2023-07-20T04:10:37;7.32;;;4.05;;
49840;SDS011;35738;49.890;5.930;2023-07-20T04:13:04;6.78;;;4.10;;
49840;SDS011;35738;49.890;5.930;2023-07-20T04:15:31;5.35;;;3.63;;
49840;SDS011;35738;49.890;5.930;2023-07-20T04:17:58;7.50;;;4.05;;
49840;SDS011;35738;49.890;5.930;2023-07-20T04:20:25;8.35;;;4.18;;
49840;SDS011;35738;49.890;5.930;2023-07-20T04:22:51;8.27;;;4.28;;
49840;SDS011;35738;49.890;5.930;2023-07-20T04:25:18;7.40;;;4.53;;
49840;SDS011;35738;49.890;5.930;2023-07-20T04:27:45;7.30;;;4.70;;
49840;SDS011;35738;49.890;5.930;2023-07-20T04:30:12;8.13;;;3.80;;
49840;SDS011;35738;49.890;5.930;2023-07-20T04:32:39;7.18;;;4.72;;
49840;SDS011;35738;49.890;5.930;2023-07-20T04:35:16;6.57;;;4.35;;
49840;SDS011;35738;49.890;5.930;2023-07-20T04:37:44;8.00;;;5.28;;
49840;SDS011;35738;49.890;5.930;2023-07-20T04:40:15;7.72;;;5.20;;
49840;SDS011;35738;49.890;5.930;2023-07-20T04:42:42;9.05;;;5.25;;
49840;SDS011;35738;49.890;5.930;2023-07-20T04:45:08;10.52;;;6.20;;
49840;SDS011;35738;49.890;5.930;2023-07-20T04:47:35;11.10;;;6.60;;
49840;SDS011;35738;49.890;5.930;2023-07-20T04:50:02;13.70;;;6.38;;
49840;SDS011;35738;49.890;5.930;2023-07-20T04:52:28;14.85;;;6.28;;
49840;SDS011;35738;49.890;5.930;2023-07-20T04:55:07;9.90;;;6.10;;
49840;SDS011;35738;49.890;5.930;2023-07-20T04:57:41;12.10;;;6.03;;
49840;SDS011;35738;49.890;5.930;2023-07-20T05:00:10;11.07;;;6.78;;
49840;SDS011;35738;49.890;5.930;2023-07-20T05:02:39;13.63;;;6.30;;
49840;SDS011;35738;49.890;5.930;2023-07-20T05:05:06;13.35;;;6.38;;
49840;SDS011;35738;49.890;5.930;2023-07-20T05:07:33;14.88;;;7.30;;
49840;SDS011;35738;49.890;5.930;2023-07-20T05:09:59;15.10;;;7.22;;
49840;SDS011;35738;49.890;5.930;2023-07-20T05:12:26;13.60;;;7.40;;
49840;SDS011;35738;49.890;5.930;2023-07-20T05:14:53;12.73;;;6.80;;
49840;SDS011;35738;49.890;5.930;2023-07-20T05:17:20;16.42;;;7.57;;
49840;SDS011;35738;49.890;5.930;2023-07-20T05:19:46;12.20;;;6.78;;
49840;SDS011;35738;49.890;5.930;2023-07-20T05:22:13;15.10;;;6.63;;
49840;SDS011;35738;49.890;5.930;2023-07-20T05:24:40;15.02;;;7.40;;
49840;SDS011;35738;49.890;5.930;2023-07-20T05:27:07;13.73;;;7.40;;
49840;SDS011;35738;49.890;5.930;2023-07-20T05:29:33;12.10;;;7.03;;
49840;SDS011;35738;49.890;5.930;2023-07-20T05:32:00;14.00;;;8.10;;
49840;SDS011;35738;49.890;5.930;2023-07-20T05:34:26;12.75;;;6.43;;
49840;SDS011;35738;49.890;5.930;2023-07-20T05:37:11;16.00;;;6.93;;
49840;SDS011;35738;49.890;5.930;2023-07-20T05:39:40;14.50;;;7.15;;
49840;SDS011;35738;49.890;5.930;2023-07-20T05:42:07;12.73;;;6.35;;
49840;SDS011;35738;49.890;5.930;2023-07-20T05:44:34;12.52;;;6.40;;
49840;SDS011;35738;49.890;5.930;2023-07-20T05:47:01;13.38;;;6.90;;
49840;SDS011;35738;49.890;5.930;2023-07-20T05:49:29;10.50;;;5.63;;
49840;SDS011;35738;49.890;5.930;2023-07-20T05:51:56;10.25;;;5.90;;
49840;SDS011;35738;49.890;5.930;2023-07-20T05:54:25;12.32;;;7.00;;
49840;SDS011;35738;49.890;5.930;2023-07-20T05:56:53;12.18;;;6.43;;
49840;SDS011;35738;49.890;5.930;2023-07-20T05:59:19;11.23;;;6.07;;
49840;SDS011;35738;49.890;5.930;2023-07-20T06:01:46;12.43;;;5.95;;
49840;SDS011;35738;49.890;5.930;2023-07-20T06:04:15;10.45;;;6.05;;
49840;SDS011;35738;49.890;5.930;2023-07-20T06:06:42;11.68;;;5.80;;
49840;SDS011;35738;49.890;5.930;2023-07-20T06:09:08;12.30;;;5.95;;
49840;SDS011;35738;49.890;5.930;2023-07-20T06:11:38;12.73;;;6.35;;
49840;SDS011;35738;49.890;5.930;2023-07-20T06:14:05;12.93;;;6.55;;
49840;SDS011;35738;49.890;5.930;2023-07-20T06:16:32;14.38;;;6.70;;
49840;SDS011;35738;49.890;5.930;2023-07-20T06:19:02;12.45;;;6.50;;
49840;SDS011;35738;49.890;5.930;2023-07-20T06:21:29;13.40;;;6.22;;
49840;SDS011;35738;49.890;5.930;2023-07-20T06:23:55;10.77;;;6.70;;
49840;SDS011;35738;49.890;5.930;2023-07-20T06:26:22;9.57;;;5.00;;
49840;SDS011;35738;49.890;5.930;2023-07-20T06:28:49;8.27;;;4.90;;
49840;SDS011;35738;49.890;5.930;2023-07-20T06:31:16;11.77;;;6.30;;
49840;SDS011;35738;49.890;5.930;2023-07-20T06:33:42;8.98;;;4.90;;
49840;SDS011;35738;49.890;5.930;2023-07-20T06:36:09;9.80;;;6.13;;
49840;SDS011;35738;49.890;5.930;2023-07-20T06:38:39;7.30;;;5.25;;
49840;SDS011;35738;49.890;5.930;2023-07-20T06:41:06;8.52;;;5.55;;
49840;SDS011;35738;49.890;5.930;2023-07-20T06:43:36;7.97;;;5.28;;
49840;SDS011;35738;49.890;5.930;2023-07-20T06:46:06;11.30;;;6.32;;
49840;SDS011;35738;49.890;5.930;2023-07-20T06:48:32;10.95;;;5.85;;
49840;SDS011;35738;49.890;5.930;2023-07-20T06:51:20;9.57;;;5.80;;
49840;SDS011;35738;49.890;5.930;2023-07-20T06:53:47;9.30;;;5.60;;
49840;SDS011;35738;49.890;5.930;2023-07-20T06:56:14;8.63;;;5.57;;
49840;SDS011;35738;49.890;5.930;2023-07-20T06:58:40;8.80;;;6.28;;
49840;SDS011;35738;49.890;5.930;2023-07-20T07:01:07;5.72;;;4.43;;
49840;SDS011;35738;49.890;5.930;2023-07-20T07:03:34;8.02;;;5.10;;
49840;SDS011;35738;49.890;5.930;2023-07-20T07:06:01;7.97;;;4.45;;
49840;SDS011;35738;49.890;5.930;2023-07-20T07:08:28;5.65;;;4.20;;
49840;SDS011;35738;49.890;5.930;2023-07-20T07:10:54;7.03;;;5.28;;
49840;SDS011;35738;49.890;5.930;2023-07-20T07:13:21;7.53;;;5.05;;
49840;SDS011;35738;49.890;5.930;2023-07-20T07:15:50;10.05;;;4.88;;
49840;SDS011;35738;49.890;5.930;2023-07-20T07:18:17;7.15;;;4.57;;
49840;SDS011;35738;49.890;5.930;2023-07-20T07:20:50;7.03;;;4.35;;
49840;SDS011;35738;49.890;5.930;2023-07-20T07:23:17;6.32;;;4.88;;
49840;SDS011;35738;49.890;5.930;2023-07-20T07:25:45;9.00;;;5.07;;
49840;SDS011;35738;49.890;5.930;2023-07-20T07:28:12;8.75;;;4.35;;
49840;SDS011;35738;49.890;5.930;2023-07-20T07:30:39;5.80;;;4.90;;
49840;SDS011;35738;49.890;5.930;2023-07-20T07:33:05;7.57;;;4.82;;
49840;SDS011;35738;49.890;5.930;2023-07-20T07:35:33;7.35;;;4.57;;
49840;SDS011;35738;49.890;5.930;2023-07-20T07:37:59;6.22;;;4.90;;
49840;SDS011;35738;49.890;5.930;2023-07-20T07:40:44;8.60;;;4.50;;
49840;SDS011;35738;49.890;5.930;2023-07-20T07:43:11;6.70;;;4.43;;
49840;SDS011;35738;49.890;5.930;2023-07-20T07:45:39;5.43;;;4.22;;
49840;SDS011;35738;49.890;5.930;2023-07-20T07:48:06;7.25;;;4.30;;
49840;SDS011;35738;49.890;5.930;2023-07-20T07:50:33;5.93;;;4.43;;
49840;SDS011;35738;49.890;5.930;2023-07-20T07:53:00;6.40;;;4.00;;
49840;SDS011;35738;49.890;5.930;2023-07-20T07:55:27;7.45;;;4.72;;
49840;SDS011;35738;49.890;5.930;2023-07-20T07:57:54;5.32;;;4.30;;
49840;SDS011;35738;49.890;5.930;2023-07-20T08:00:21;5.90;;;3.63;;
49840;SDS011;35738;49.890;5.930;2023-07-20T08:02:47;6.72;;;3.88;;
49840;SDS011;35738;49.890;5.930;2023-07-20T08:05:17;5.70;;;3.47;;
49840;SDS011;35738;49.890;5.930;2023-07-20T08:07:43;5.70;;;3.60;;
49840;SDS011;35738;49.890;5.930;2023-07-20T08:10:10;5.75;;;3.58;;
49840;SDS011;35738;49.890;5.930;2023-07-20T08:12:38;7.35;;;3.70;;
49840;SDS011;35738;49.890;5.930;2023-07-20T08:15:04;5.72;;;3.45;;
49840;SDS011;35738;49.890;5.930;2023-07-20T08:17:34;4.47;;;3.50;;
49840;SDS011;35738;49.890;5.930;2023-07-20T08:20:01;7.38;;;4.00;;
49840;SDS011;35738;49.890;5.930;2023-07-20T08:22:28;5.70;;;4.20;;
49840;SDS011;35738;49.890;5.930;2023-07-20T08:24:54;7.32;;;4.00;;
49840;SDS011;35738;49.890;5.930;2023-07-20T08:27:21;6.03;;;3.42;;
49840;SDS011;35738;49.890;5.930;2023-07-20T08:29:48;8.23;;;3.42;;
49840;SDS011;35738;49.890;5.930;2023-07-20T08:32:14;5.38;;;3.40;;
49840;SDS011;35738;49.890;5.930;2023-07-20T08:34:41;5.32;;;3.40;;
49840;SDS011;35738;49.890;5.930;2023-07-20T08:37:08;5.18;;;3.47;;
49840;SDS011;35738;49.890;5.930;2023-07-20T08:39:36;3.42;;;2.90;;
49840;SDS011;35738;49.890;5.930;2023-07-20T08:42:03;3.22;;;2.53;;
49840;SDS011;35738;49.890;5.930;2023-07-20T08:44:32;2.85;;;2.58;;
49840;SDS011;35738;49.890;5.930;2023-07-20T08:47:03;10.55;;;3.80;;
49840;SDS011;35738;49.890;5.930;2023-07-20T08:49:31;4.68;;;2.60;;
49840;SDS011;35738;49.890;5.930;2023-07-20T08:51:59;5.05;;;2.75;;
49840;SDS011;35738;49.890;5.930;2023-07-20T08:54:32;3.92;;;2.53;;
49840;SDS011;35738;49.890;5.930;2023-07-20T08:57:01;4.75;;;2.70;;
49840;SDS011;35738;49.890;5.930;2023-07-20T08:59:29;3.15;;;2.50;;
49840;SDS011;35738;49.890;5.930;2023-07-20T09:01:56;3.50;;;2.50;;
49840;SDS011;35738;49.890;5.930;2023-07-20T09:04:25;4.43;;;2.50;;
49840;SDS011;35738;49.890;5.930;2023-07-20T09:06:52;3.90;;;2.80;;
49840;SDS011;35738;49.890;5.930;2023-07-20T09:09:20;3.45;;;2.83;;
49840;SDS011;35738;49.890;5.930;2023-07-20T09:11:47;2.90;;;2.70;;
49840;SDS011;35738;49.890;5.930;2023-07-20T09:14:15;3.00;;;2.47;;
49840;SDS011;35738;49.890;5.930;2023-07-20T09:19:21;3.47;;;2.25;;
49840;SDS011;35738;49.890;5.930;2023-07-20T09:21:49;2.88;;;2.50;;
49840;SDS011;35738;49.890;5.930;2023-07-20T09:24:18;3.60;;;2.40;;
49840;SDS011;35738;49.890;5.930;2023-07-20T09:26:46;2.45;;;2.05;;
49840;SDS011;35738;49.890;5.930;2023-07-20T09:29:17;2.10;;;1.90;;
49840;SDS011;35738;49.890;5.930;2023-07-20T09:31:57;2.40;;;2.20;;
49840;SDS011;35738;49.890;5.930;2023-07-20T09:34:31;3.22;;;2.20;;
49840;SDS011;35738;49.890;5.930;2023-07-20T09:37:01;3.83;;;2.30;;
49840;SDS011;35738;49.890;5.930;2023-07-20T09:39:29;1.70;;;1.60;;
49840;SDS011;35738;49.890;5.930;2023-07-20T09:41:59;1.95;;;1.85;;
49840;SDS011;35738;49.890;5.930;2023-07-20T09:44:30;2.38;;;2.00;;
49840;SDS011;35738;49.890;5.930;2023-07-20T09:47:02;2.28;;;1.90;;
49840;SDS011;35738;49.890;5.930;2023-07-20T09:49:31;1.70;;;1.60;;
49840;SDS011;35738;49.890;5.930;2023-07-20T09:52:18;2.22;;;1.73;;
49840;SDS011;35738;49.890;5.930;2023-07-20T09:55:05;1.90;;;1.80;;
49840;SDS011;35738;49.890;5.930;2023-07-20T09:57:35;3.97;;;2.00;;
49840;SDS011;35738;49.890;5.930;2023-07-20T10:00:06;1.80;;;1.70;;
49840;SDS011;35738;49.890;5.930;2023-07-20T10:02:45;2.63;;;2.03;;
49840;SDS011;35738;49.890;5.930;2023-07-20T10:05:13;2.30;;;2.05;;
49840;SDS011;35738;49.890;5.930;2023-07-20T10:07:46;2.30;;;2.10;;
49840;SDS011;35738;49.890;5.930;2023-07-20T10:10:14;2.03;;;1.60;;
49840;SDS011;35738;49.890;5.930;2023-07-20T10:12:47;8.10;;;1.70;;
49840;SDS011;35738;49.890;5.930;2023-07-20T10:15:19;2.90;;;1.65;;
49840;SDS011;35738;49.890;5.930;2023-07-20T10:18:12;2.85;;;1.95;;
49840;SDS011;35738;49.890;5.930;2023-07-20T10:20:40;2.63;;;2.20;;
49840;SDS011;35738;49.890;5.930;2023-07-20T10:23:31;2.00;;;1.70;;
49840;SDS011;35738;49.890;5.930;2023-07-20T10:25:59;1.98;;;1.83;;
49840;SDS011;35738;49.890;5.930;2023-07-20T10:28:28;1.88;;;1.73;;
49840;SDS011;35738;49.890;5.930;2023-07-20T10:30:55;2.58;;;1.92;;
49840;SDS011;35738;49.890;5.930;2023-07-20T10:33:22;1.77;;;1.67;;
49840;SDS011;35738;49.890;5.930;2023-07-20T10:35:56;1.92;;;1.60;;
49840;SDS011;35738;49.890;5.930;2023-07-20T10:38:40;2.75;;;1.77;;
49840;SDS011;35738;49.890;5.930;2023-07-20T10:43:46;2.00;;;1.63;;
49840;SDS011;35738;49.890;5.930;2023-07-20T10:46:13;1.73;;;1.60;;
49840;SDS011;35738;49.890;5.930;2023-07-20T10:49:00;3.42;;;1.85;;
49840;SDS011;35738;49.890;5.930;2023-07-20T10:51:43;1.75;;;1.52;;
49840;SDS011;35738;49.890;5.930;2023-07-20T10:56:44;1.50;;;1.40;;
49840;SDS011;35738;49.890;5.930;2023-07-20T11:01:57;1.80;;;1.70;;
49840;SDS011;35738;49.890;5.930;2023-07-20T11:04:40;1.55;;;1.45;;
49840;SDS011;35738;49.890;5.930;2023-07-20T11:07:14;1.50;;;1.40;;
49840;SDS011;35738;49.890;5.930;2023-07-20T11:09:43;2.33;;;1.60;;
49840;SDS011;35738;49.890;5.930;2023-07-20T11:12:15;1.73;;;1.63;;
49840;SDS011;35738;49.890;5.930;2023-07-20T11:14:52;3.72;;;2.00;;
49840;SDS011;35738;49.890;5.930;2023-07-20T11:17:21;1.80;;;1.70;;
49840;SDS011;35738;49.890;5.930;2023-07-20T11:19:56;1.90;;;1.67;;
49840;SDS011;35738;49.890;5.930;2023-07-20T11:22:27;2.55;;;1.80;;
49840;SDS011;35738;49.890;5.930;2023-07-20T11:24:57;1.92;;;1.75;;
49840;SDS011;35738;49.890;5.930;2023-07-20T11:27:24;1.65;;;1.55;;
49840;SDS011;35738;49.890;5.930;2023-07-20T11:29:50;2.22;;;1.80;;
49840;SDS011;35738;49.890;5.930;2023-07-20T11:32:21;1.60;;;1.50;;
49840;SDS011;35738;49.890;5.930;2023-07-20T11:34:48;1.60;;;1.40;;
49840;SDS011;35738;49.890;5.930;2023-07-20T11:37:19;1.50;;;1.40;;
49840;SDS011;35738;49.890;5.930;2023-07-20T11:39:46;1.63;;;1.50;;
49840;SDS011;35738;49.890;5.930;2023-07-20T11:42:13;1.58;;;1.40;;
49840;SDS011;35738;49.890;5.930;2023-07-20T11:45:01;1.52;;;1.40;;
49840;SDS011;35738;49.890;5.930;2023-07-20T11:47:31;1.50;;;1.40;;
49840;SDS011;35738;49.890;5.930;2023-07-20T11:49:57;1.55;;;1.45;;
49840;SDS011;35738;49.890;5.930;2023-07-20T11:52:29;1.40;;;1.30;;
49840;SDS011;35738;49.890;5.930;2023-07-20T11:54:56;1.83;;;1.42;;
49840;SDS011;35738;49.890;5.930;2023-07-20T11:57:24;1.98;;;1.27;;
49840;SDS011;35738;49.890;5.930;2023-07-20T11:59:54;3.28;;;1.42;;
49840;SDS011;35738;49.890;5.930;2023-07-20T12:02:28;1.52;;;1.30;;
49840;SDS011;35738;49.890;5.930;2023-07-20T12:04:56;1.40;;;1.30;;
49840;SDS011;35738;49.890;5.930;2023-07-20T12:07:26;1.45;;;1.35;;
49840;SDS011;35738;49.890;5.930;2023-07-20T12:10:14;1.90;;;1.33;;
49840;SDS011;35738;49.890;5.930;2023-07-20T12:12:42;2.58;;;1.35;;
49840;SDS011;35738;49.890;5.930;2023-07-20T12:15:17;1.77;;;1.50;;
49840;SDS011;35738;49.890;5.930;2023-07-20T12:17:56;2.90;;;1.17;;
49840;SDS011;35738;49.890;5.930;2023-07-20T12:20:25;1.85;;;1.30;;
49840;SDS011;35738;49.890;5.930;2023-07-20T12:22:56;1.10;;;1.10;;
49840;SDS011;35738;49.890;5.930;2023-07-20T12:25:41;1.40;;;1.30;;
49840;SDS011;35738;49.890;5.930;2023-07-20T12:28:16;2.50;;;1.20;;
49840;SDS011;35738;49.890;5.930;2023-07-20T12:30:46;1.40;;;1.30;;
49840;SDS011;35738;49.890;5.930;2023-07-20T12:33:17;1.17;;;1.17;;
49840;SDS011;35738;49.890;5.930;2023-07-20T12:35:44;1.38;;;1.23;;
49840;SDS011;35738;49.890;5.930;2023-07-20T12:38:10;1.33;;;1.27;;
49840;SDS011;35738;49.890;5.930;2023-07-20T12:40:37;1.20;;;1.20;;
49840;SDS011;35738;49.890;5.930;2023-07-20T12:43:04;1.05;;;1.00;;
49840;SDS011;35738;49.890;5.930;2023-07-20T12:45:32;1.17;;;1.10;;
49840;SDS011;35738;49.890;5.930;2023-07-20T12:48:02;1.10;;;1.10;;
49840;SDS011;35738;49.890;5.930;2023-07-20T12:50:29;1.30;;;1.20;;
49840;SDS011;35738;49.890;5.930;2023-07-20T12:52:57;1.30;;;1.20;;
49840;SDS011;35738;49.890;5.930;2023-07-20T12:55:25;1.13;;;1.02;;
49840;SDS011;35738;49.890;5.930;2023-07-20T12:57:52;3.20;;;1.05;;
49840;SDS011;35738;49.890;5.930;2023-07-20T13:00:21;2.03;;;1.13;;
49840;SDS011;35738;49.890;5.930;2023-07-20T13:02:51;1.30;;;1.20;;
49840;SDS011;35738;49.890;5.930;2023-07-20T13:05:34;1.13;;;1.13;;
49840;SDS011;35738;49.890;5.930;2023-07-20T13:08:04;1.20;;;1.10;;
49840;SDS011;35738;49.890;5.930;2023-07-20T13:10:34;2.67;;;1.30;;
49840;SDS011;35738;49.890;5.930;2023-07-20T13:13:01;1.13;;;1.10;;
49840;SDS011;35738;49.890;5.930;2023-07-20T13:15:31;1.30;;;1.20;;
49840;SDS011;35738;49.890;5.930;2023-07-20T13:17:59;1.58;;;1.27;;
49840;SDS011;35738;49.890;5.930;2023-07-20T13:20:26;1.40;;;1.30;;
49840;SDS011;35738;49.890;5.930;2023-07-20T13:22:54;1.23;;;1.08;;
49840;SDS011;35738;49.890;5.930;2023-07-20T13:25:21;1.40;;;1.30;;
49840;SDS011;35738;49.890;5.930;2023-07-20T13:27:48;1.20;;;1.20;;
49840;SDS011;35738;49.890;5.930;2023-07-20T13:30:14;1.60;;;1.10;;
49840;SDS011;35738;49.890;5.930;2023-07-20T13:32:45;1.10;;;1.10;;
49840;SDS011;35738;49.890;5.930;2023-07-20T13:35:12;1.30;;;1.20;;
49840;SDS011;35738;49.890;5.930;2023-07-20T13:37:43;1.77;;;1.33;;
49840;SDS011;35738;49.890;5.930;2023-07-20T13:40:09;1.27;;;1.20;;
49840;SDS011;35738;49.890;5.930;2023-07-20T13:42:39;1.17;;;1.17;;
49840;SDS011;35738;49.890;5.930;2023-07-20T13:45:10;1.25;;;1.13;;
49840;SDS011;35738;49.890;5.930;2023-07-20T13:47:36;1.35;;;1.10;;
49840;SDS011;35738;49.890;5.930;2023-07-20T13:50:03;4.53;;;1.30;;
49840;SDS011;35738;49.890;5.930;2023-07-20T13:52:31;1.08;;;1.08;;
49840;SDS011;35738;49.890;5.930;2023-07-20T13:55:00;1.20;;;1.20;;
49840;SDS011;35738;49.890;5.930;2023-07-20T13:57:31;1.00;;;1.00;;
49840;SDS011;35738;49.890;5.930;2023-07-20T14:00:01;1.30;;;1.20;;
49840;SDS011;35738;49.890;5.930;2023-07-20T14:02:35;1.17;;;1.17;;
49840;SDS011;35738;49.890;5.930;2023-07-20T14:05:05;1.55;;;0.90;;
49840;SDS011;35738;49.890;5.930;2023-07-20T14:07:35;1.42;;;1.30;;
49840;SDS011;35738;49.890;5.930;2023-07-20T14:10:02;2.58;;;1.50;;
49840;SDS011;35738;49.890;5.930;2023-07-20T14:12:32;1.02;;;1.02;;
49840;SDS011;35738;49.890;5.930;2023-07-20T14:14:58;1.88;;;1.20;;
49840;SDS011;35738;49.890;5.930;2023-07-20T14:17:25;1.40;;;1.30;;
49840;SDS011;35738;49.890;5.930;2023-07-20T14:19:52;2.95;;;1.20;;
49840;SDS011;35738;49.890;5.930;2023-07-20T14:22:19;2.00;;;1.20;;
49840;SDS011;35738;49.890;5.930;2023-07-20T14:24:46;1.85;;;1.33;;
49840;SDS011;35738;49.890;5.930;2023-07-20T14:27:12;1.33;;;1.23;;
49840;SDS011;35738;49.890;5.930;2023-07-20T14:29:39;2.33;;;1.45;;
49840;SDS011;35738;49.890;5.930;2023-07-20T14:32:05;1.20;;;1.10;;
49840;SDS011;35738;49.890;5.930;2023-07-20T14:34:33;1.60;;;1.27;;
49840;SDS011;35738;49.890;5.930;2023-07-20T14:37:02;3.75;;;1.50;;
49840;SDS011;35738;49.890;5.930;2023-07-20T14:39:30;2.20;;;1.55;;
49840;SDS011;35738;49.890;5.930;2023-07-20T14:41:58;3.10;;;1.30;;
49840;SDS011;35738;49.890;5.930;2023-07-20T14:44:24;1.70;;;1.52;;
49840;SDS011;35738;49.890;5.930;2023-07-20T14:46:51;1.40;;;1.30;;
49840;SDS011;35738;49.890;5.930;2023-07-20T14:49:38;1.85;;;1.30;;
49840;SDS011;35738;49.890;5.930;2023-07-20T14:52:04;3.58;;;1.67;;
49840;SDS011;35738;49.890;5.930;2023-07-20T14:54:41;1.38;;;1.27;;
49840;SDS011;35738;49.890;5.930;2023-07-20T14:57:08;4.75;;;1.98;;
49840;SDS011;35738;49.890;5.930;2023-07-20T14:59:40;1.20;;;1.10;;
49840;SDS011;35738;49.890;5.930;2023-07-20T15:02:08;2.53;;;1.65;;
49840;SDS011;35738;49.890;5.930;2023-07-20T15:04:35;1.60;;;1.50;;
49840;SDS011;35738;49.890;5.930;2023-07-20T15:07:01;2.65;;;1.63;;
49840;SDS011;35738;49.890;5.930;2023-07-20T15:09:28;1.95;;;1.50;;
49840;SDS011;35738;49.890;5.930;2023-07-20T15:11:55;1.30;;;1.30;;
49840;SDS011;35738;49.890;5.930;2023-07-20T15:14:22;1.40;;;1.30;;
49840;SDS011;35738;49.890;5.930;2023-07-20T15:16:48;1.40;;;1.30;;